createdAt,value
2018-08-19T00:00:37.711Z,3.80
2018-08-19T00:01:37.739Z,3.50
2018-08-19T00:02:37.754Z,3.90
2018-08-19T00:03:37.773Z,3.40
2018-08-19T00:04:37.788Z,3.50
2018-08-19T00:05:37.810Z,3.80
2018-08-19T00:06:37.828Z,3.90
2018-08-19T00:07:37.882Z,3.80
2018-08-19T00:08:37.875Z,3.70
2018-08-19T00:09:37.898Z,3.70
2018-08-19T00:10:37.909Z,3.70
2018-08-19T00:11:37.924Z,3.60
2018-08-19T00:12:37.948Z,3.40
2018-08-19T00:13:37.964Z,3.70
2018-08-19T00:14:37.982Z,3.70
2018-08-19T00:15:38.008Z,3.40
2018-08-19T00:16:38.022Z,3.90
2018-08-19T00:17:38.041Z,3.70
2018-08-19T00:18:38.062Z,3.90
2018-08-19T00:19:38.086Z,3.70
2018-08-19T00:20:38.100Z,4.00
2018-08-19T00:21:38.144Z,3.70
2018-08-19T00:22:38.139Z,3.80
2018-08-19T00:23:38.157Z,4.30
2018-08-19T00:24:38.182Z,3.90
2018-08-19T00:25:38.198Z,3.90
2018-08-19T00:26:38.219Z,3.60
2018-08-19T00:27:38.245Z,4.00
2018-08-19T00:28:38.255Z,3.90
2018-08-19T00:29:38.277Z,3.70
2018-08-19T00:30:38.294Z,3.70
2018-08-19T00:31:38.312Z,4.00
2018-08-19T00:32:38.334Z,3.70
2018-08-19T00:33:38.353Z,4.30
2018-08-19T00:34:38.397Z,3.70
2018-08-19T00:35:38.399Z,3.80
2018-08-19T00:36:38.412Z,3.40
2018-08-19T00:37:38.430Z,3.90
2018-08-19T00:38:38.454Z,3.70
2018-08-19T00:39:38.493Z,3.80
2018-08-19T00:40:38.490Z,3.70
2018-08-19T00:41:38.511Z,3.90
2018-08-19T00:42:38.535Z,3.50
2018-08-19T00:43:38.552Z,4.30
2018-08-19T00:44:38.568Z,3.60
2018-08-19T00:45:38.585Z,3.90
2018-08-19T00:46:38.606Z,4.40
2018-08-19T00:47:38.628Z,3.80
2018-08-19T00:48:38.644Z,3.90
2018-08-19T00:49:38.665Z,4.10
2018-08-19T00:50:38.683Z,3.60
2018-08-19T00:51:38.703Z,4.00
2018-08-19T00:52:38.721Z,3.80
2018-08-19T00:53:38.745Z,4.30
2018-08-19T00:54:38.760Z,4.10
2018-08-19T00:55:38.779Z,4.00
2018-08-19T00:56:38.803Z,3.90
2018-08-19T00:57:38.819Z,4.50
2018-08-19T00:58:38.838Z,3.60
2018-08-19T00:59:38.863Z,3.70
2018-08-19T01:00:38.874Z,4.10
2018-08-19T01:01:38.893Z,4.00
2018-08-19T01:02:38.915Z,4.00
2018-08-19T01:03:38.939Z,4.20
2018-08-19T01:04:38.951Z,4.00
2018-08-19T01:05:38.973Z,4.30
2018-08-19T01:06:38.998Z,4.10
2018-08-19T01:07:39.008Z,4.20
2018-08-19T01:08:39.030Z,4.40
2018-08-19T01:09:39.049Z,4.60
2018-08-19T01:10:39.070Z,4.60
2018-08-19T01:11:39.093Z,4.00
2018-08-19T01:12:39.108Z,4.10
2018-08-19T01:13:39.125Z,4.40
2018-08-19T01:14:39.145Z,4.10
2018-08-19T01:15:39.164Z,4.30
2018-08-19T01:16:39.185Z,4.30
2018-08-19T01:17:39.202Z,4.70
2018-08-19T01:18:39.224Z,4.70
2018-08-19T01:19:39.242Z,4.20
2018-08-19T01:20:39.263Z,4.40
2018-08-19T01:21:39.282Z,4.40
2018-08-19T01:22:39.305Z,4.30
2018-08-19T01:23:39.319Z,5.10
2018-08-19T01:24:39.337Z,4.40
2018-08-19T01:25:39.355Z,4.50
2018-08-19T01:26:39.375Z,4.80
2018-08-19T01:27:39.394Z,4.30
2018-08-19T01:28:39.415Z,4.50
2018-08-19T01:29:39.433Z,4.80
2018-08-19T01:30:39.453Z,4.80
2018-08-19T01:31:39.471Z,4.10
2018-08-19T01:32:39.492Z,4.60
2018-08-19T01:33:39.510Z,3.80
2018-08-19T01:34:39.528Z,4.20
2018-08-19T01:35:39.547Z,4.50
2018-08-19T01:36:39.567Z,5.00
2018-08-19T01:37:39.588Z,4.20
2018-08-19T01:38:39.624Z,4.10
2018-08-19T01:39:39.628Z,4.60
2018-08-19T01:40:39.649Z,4.90
2018-08-19T01:41:39.668Z,4.60
2018-08-19T01:42:39.681Z,5.00
2018-08-19T01:43:39.702Z,4.20
2018-08-19T01:44:39.722Z,3.90
2018-08-19T01:45:39.742Z,4.20
2018-08-19T01:46:39.763Z,4.80
2018-08-19T01:47:39.781Z,4.90
2018-08-19T01:48:39.804Z,4.80
2018-08-19T01:49:39.823Z,4.90
2018-08-19T01:50:39.840Z,4.90
2018-08-19T01:51:39.857Z,4.30
2018-08-19T01:52:39.876Z,4.50
2018-08-19T01:53:39.896Z,5.00
2018-08-19T01:54:39.929Z,4.60
2018-08-19T01:55:39.937Z,4.60
2018-08-19T01:56:39.952Z,4.30
2018-08-19T01:57:39.978Z,4.50
2018-08-19T01:58:39.993Z,4.60
2018-08-19T01:59:40.012Z,4.80
2018-08-19T02:00:40.077Z,4.50
2018-08-19T02:01:40.050Z,4.40
2018-08-19T02:02:40.070Z,5.00
2018-08-19T02:03:40.090Z,4.70
2018-08-19T02:04:40.118Z,4.40
2018-08-19T02:05:40.127Z,4.50
2018-08-19T02:06:40.149Z,4.50
2018-08-19T02:07:40.165Z,4.10
2018-08-19T02:08:40.210Z,4.70
2018-08-19T02:09:40.216Z,4.70
2018-08-19T02:10:40.225Z,4.90
2018-08-19T02:11:40.242Z,4.20
2018-08-19T02:12:40.261Z,4.80
2018-08-19T02:13:40.286Z,4.60
2018-08-19T02:14:40.302Z,4.20
2018-08-19T02:15:40.321Z,4.40
2018-08-19T02:16:40.337Z,4.30
2018-08-19T02:17:40.357Z,5.30
2018-08-19T02:18:40.374Z,4.50
2018-08-19T02:19:40.400Z,4.40
2018-08-19T02:20:40.475Z,4.90
2018-08-19T02:21:40.435Z,4.70
2018-08-19T02:22:40.453Z,4.90
2018-08-19T02:23:40.472Z,4.40
2018-08-19T02:24:40.491Z,4.90
2018-08-19T02:25:40.509Z,5.00
2018-08-19T02:26:40.529Z,4.70
2018-08-19T02:27:40.549Z,4.70
2018-08-19T02:28:40.566Z,4.80
2018-08-19T02:29:40.585Z,5.50
2018-08-19T02:30:40.604Z,5.60
2018-08-19T02:31:40.628Z,5.60
2018-08-19T02:32:40.647Z,5.10
2018-08-19T02:33:40.664Z,5.60
2018-08-19T02:34:40.685Z,5.30
2018-08-19T02:35:40.699Z,5.30
2018-08-19T02:36:40.720Z,5.20
2018-08-19T02:37:40.740Z,5.20
2018-08-19T02:38:40.762Z,5.30
2018-08-19T02:39:40.783Z,5.20
2018-08-19T02:40:40.839Z,5.40
2018-08-19T02:41:40.816Z,4.80
2018-08-19T02:42:40.832Z,5.20
2018-08-19T02:43:40.851Z,5.10
2018-08-19T02:44:40.872Z,4.80
2018-08-19T02:45:40.891Z,5.10
2018-08-19T02:46:40.912Z,4.90
2018-08-19T02:47:40.936Z,5.20
2018-08-19T02:48:40.949Z,4.90
2018-08-19T02:49:40.966Z,4.70
2018-08-19T02:50:40.991Z,4.90
2018-08-19T02:51:41.007Z,5.10
2018-08-19T02:52:41.023Z,5.50
2018-08-19T02:53:41.059Z,5.10
2018-08-19T02:54:41.068Z,5.30
2018-08-19T02:55:41.082Z,5.90
2018-08-19T02:56:41.100Z,5.40
2018-08-19T02:57:41.119Z,5.20
2018-08-19T02:58:41.137Z,5.30
2018-08-19T02:59:41.157Z,4.80
2018-08-19T03:00:41.174Z,5.10
2018-08-19T03:01:41.194Z,5.40
2018-08-19T03:02:41.225Z,4.80
2018-08-19T03:03:41.232Z,5.70
2018-08-19T03:04:41.249Z,5.50
2018-08-19T03:05:41.270Z,5.70
2018-08-19T03:06:41.289Z,5.00
2018-08-19T03:07:41.308Z,5.40
2018-08-19T03:08:41.324Z,5.40
2018-08-19T03:09:41.346Z,5.50
2018-08-19T03:10:41.363Z,5.30
2018-08-19T03:11:41.385Z,5.10
2018-08-19T03:12:41.404Z,5.50
2018-08-19T03:13:41.423Z,5.70
2018-08-19T03:14:41.438Z,4.90
2018-08-19T03:15:41.459Z,5.20
2018-08-19T03:16:41.478Z,5.50
2018-08-19T03:17:41.497Z,5.00
2018-08-19T03:18:41.525Z,4.60
2018-08-19T03:19:41.531Z,5.80
2018-08-19T03:20:41.558Z,5.90
2018-08-19T03:21:41.576Z,5.60
2018-08-19T03:22:41.591Z,5.40
2018-08-19T03:23:41.612Z,5.00
2018-08-19T03:24:41.627Z,5.70
2018-08-19T03:25:41.649Z,5.70
2018-08-19T03:26:41.665Z,5.20
2018-08-19T03:27:41.685Z,5.00
2018-08-19T03:28:41.711Z,5.20
2018-08-19T03:29:41.725Z,5.30
2018-08-19T03:30:41.753Z,5.40
2018-08-19T03:31:41.762Z,5.10
2018-08-19T03:32:41.783Z,5.70
2018-08-19T03:33:41.800Z,5.30
2018-08-19T03:34:41.817Z,5.40
2018-08-19T03:35:41.846Z,5.60
2018-08-19T03:36:41.856Z,5.20
2018-08-19T03:37:41.873Z,5.80
2018-08-19T03:38:41.896Z,5.00
2018-08-19T03:39:41.916Z,5.30
2018-08-19T03:40:41.929Z,5.50
2018-08-19T03:41:41.950Z,5.50
2018-08-19T03:42:41.968Z,5.50
2018-08-19T03:43:42.000Z,5.50
2018-08-19T03:44:42.008Z,5.80
2018-08-19T03:45:42.024Z,5.50
2018-08-19T03:46:42.042Z,5.80
2018-08-19T03:47:42.061Z,5.80
2018-08-19T03:48:42.081Z,5.60
2018-08-19T03:49:42.105Z,5.40
2018-08-19T03:50:42.118Z,5.90
2018-08-19T03:51:42.141Z,5.80
2018-08-19T03:52:42.161Z,6.30
2018-08-19T03:53:42.177Z,5.80
2018-08-19T03:54:42.192Z,5.90
2018-08-19T03:55:42.210Z,6.30
2018-08-19T03:56:42.230Z,5.80
2018-08-19T03:57:42.249Z,5.90
2018-08-19T03:58:42.270Z,5.40
2018-08-19T03:59:42.284Z,6.30
2018-08-19T04:00:42.303Z,5.90
2018-08-19T04:01:42.323Z,6.00
2018-08-19T04:02:42.344Z,5.30
2018-08-19T04:03:42.360Z,5.10
2018-08-19T04:04:42.378Z,6.50
2018-08-19T04:05:42.403Z,5.60
2018-08-19T04:06:42.417Z,5.80
2018-08-19T04:07:42.436Z,5.90
2018-08-19T04:08:42.454Z,6.00
2018-08-19T04:09:42.482Z,6.00
2018-08-19T04:10:42.650Z,5.60
2018-08-19T04:11:42.527Z,5.50
2018-08-19T04:12:42.532Z,5.60
2018-08-19T04:13:42.546Z,5.90
2018-08-19T04:14:42.572Z,5.70
2018-08-19T04:15:42.583Z,6.00
2018-08-19T04:16:42.606Z,5.30
2018-08-19T04:17:42.628Z,5.10
2018-08-19T04:18:42.642Z,5.60
2018-08-19T04:19:42.705Z,5.90
2018-08-19T04:20:42.679Z,6.00
2018-08-19T04:21:42.704Z,5.90
2018-08-19T04:22:42.716Z,5.60
2018-08-19T04:23:42.740Z,5.20
2018-08-19T04:24:42.754Z,5.60
2018-08-19T04:25:42.774Z,5.70
2018-08-19T04:26:42.791Z,5.50
2018-08-19T04:27:42.813Z,5.60
2018-08-19T04:28:42.834Z,5.70
2018-08-19T04:29:42.850Z,5.60
2018-08-19T04:30:42.870Z,5.70
2018-08-19T04:31:42.886Z,5.50
2018-08-19T04:32:42.905Z,5.60
2018-08-19T04:33:42.922Z,5.50
2018-08-19T04:34:42.943Z,5.60
2018-08-19T04:35:42.958Z,5.20
2018-08-19T04:36:42.979Z,6.00
2018-08-19T04:37:43.001Z,6.40
2018-08-19T04:38:43.016Z,6.20
2018-08-19T04:39:43.035Z,5.40
2018-08-19T04:40:43.054Z,5.30
2018-08-19T04:41:43.081Z,5.20
2018-08-19T04:42:43.091Z,5.80
2018-08-19T04:43:43.113Z,5.40
2018-08-19T04:44:43.129Z,5.80
2018-08-19T04:45:43.151Z,5.80
2018-08-19T04:46:43.177Z,6.20
2018-08-19T04:47:43.184Z,5.90
2018-08-19T04:48:43.206Z,5.70
2018-08-19T04:49:43.223Z,5.20
2018-08-19T04:50:43.247Z,5.40
2018-08-19T04:51:43.266Z,6.00
2018-08-19T04:52:43.288Z,5.30
2018-08-19T04:53:43.299Z,5.70
2018-08-19T04:54:43.319Z,5.90
2018-08-19T04:55:43.339Z,5.70
2018-08-19T04:56:43.361Z,6.40
2018-08-19T04:57:43.376Z,5.60
2018-08-19T04:58:43.395Z,5.50
2018-08-19T04:59:43.416Z,5.10
2018-08-19T05:00:43.434Z,5.70
2018-08-19T05:01:43.454Z,5.50
2018-08-19T05:02:43.472Z,5.40
2018-08-19T05:03:43.491Z,5.50
2018-08-19T05:04:43.511Z,5.70
2018-08-19T05:05:43.530Z,5.30
2018-08-19T05:06:43.549Z,5.30
2018-08-19T05:07:43.574Z,5.00
2018-08-19T05:08:43.601Z,5.20
2018-08-19T05:09:43.610Z,5.30
2018-08-19T05:10:43.629Z,5.20
2018-08-19T05:11:43.650Z,4.90
2018-08-19T05:12:43.678Z,5.00
2018-08-19T05:13:43.745Z,4.90
2018-08-19T05:14:43.711Z,5.00
2018-08-19T05:15:43.735Z,4.90
2018-08-19T05:16:43.756Z,4.80
2018-08-19T05:17:43.778Z,4.80
2018-08-19T05:18:43.799Z,4.40
2018-08-19T05:19:43.819Z,4.30
2018-08-19T05:20:43.845Z,4.70
2018-08-19T05:21:43.867Z,4.40
2018-08-19T05:22:43.886Z,4.90
2018-08-19T05:23:43.908Z,4.30
2018-08-19T05:24:43.930Z,4.40
2018-08-19T05:25:43.955Z,4.40
2018-08-19T05:26:43.979Z,4.60
2018-08-19T05:27:44.001Z,4.10
2018-08-19T05:28:44.021Z,4.50
2018-08-19T05:29:44.047Z,4.50
2018-08-19T05:30:44.216Z,4.40
2018-08-19T05:31:44.090Z,4.40
2018-08-19T05:32:44.111Z,4.40
2018-08-19T05:33:44.138Z,4.90
2018-08-19T05:34:44.161Z,4.40
2018-08-19T05:35:44.179Z,4.70
2018-08-19T05:36:44.208Z,4.30
2018-08-19T05:37:44.229Z,4.40
2018-08-19T05:38:44.267Z,4.80
2018-08-19T05:39:44.275Z,5.10
2018-08-19T05:40:44.298Z,4.50
2018-08-19T05:41:44.324Z,4.50
2018-08-19T05:42:44.343Z,4.40
2018-08-19T05:43:44.370Z,4.20
2018-08-19T05:44:44.398Z,3.90
2018-08-19T05:45:44.421Z,4.50
2018-08-19T05:46:44.441Z,4.50
2018-08-19T05:47:44.467Z,4.60
2018-08-19T05:48:44.493Z,4.60
2018-08-19T05:49:44.514Z,4.50
2018-08-19T05:50:44.541Z,4.40
2018-08-19T05:51:44.578Z,4.10
2018-08-19T05:52:44.590Z,4.40
2018-08-19T05:53:44.614Z,4.10
2018-08-19T05:54:44.646Z,4.10
2018-08-19T05:55:44.779Z,4.20
2018-08-19T05:56:44.693Z,3.90
2018-08-19T05:57:44.712Z,4.10
2018-08-19T05:58:44.742Z,3.80
2018-08-19T05:59:44.764Z,3.90
2018-08-19T06:00:44.790Z,4.50
2018-08-19T06:01:44.816Z,4.60
2018-08-19T06:02:44.836Z,4.30
2018-08-19T06:03:44.916Z,3.80
2018-08-19T06:04:44.898Z,4.20
2018-08-19T06:05:44.918Z,3.80
2018-08-19T06:06:44.941Z,4.20
2018-08-19T06:07:44.973Z,4.00
2018-08-19T06:08:44.990Z,4.20
2018-08-19T06:09:45.014Z,4.10
2018-08-19T06:10:45.043Z,3.80
2018-08-19T06:11:45.067Z,4.00
2018-08-19T06:12:45.094Z,4.30
2018-08-19T06:13:45.123Z,4.20
2018-08-19T06:14:45.154Z,4.00
2018-08-19T06:15:45.191Z,4.50
2018-08-19T06:16:45.198Z,3.90
2018-08-19T06:17:45.231Z,4.10
2018-08-19T06:18:45.266Z,3.90
2018-08-19T06:19:45.276Z,4.00
2018-08-19T06:20:45.306Z,3.80
2018-08-19T06:21:45.327Z,3.70
2018-08-19T06:22:45.351Z,3.40
2018-08-19T06:23:45.401Z,3.70
2018-08-19T06:24:45.468Z,3.60
2018-08-19T06:25:45.436Z,3.60
2018-08-19T06:26:45.469Z,3.80
2018-08-19T06:27:45.496Z,3.60
2018-08-19T06:28:45.516Z,3.40
2018-08-19T06:29:45.539Z,3.70
2018-08-19T06:30:45.566Z,3.90
2018-08-19T06:31:45.592Z,3.60
2018-08-19T06:32:45.625Z,3.90
2018-08-19T06:33:45.644Z,3.60
2018-08-19T06:34:45.702Z,3.70
2018-08-19T06:35:45.700Z,3.50
2018-08-19T06:36:45.730Z,3.70
2018-08-19T06:37:45.759Z,3.20
2018-08-19T06:38:45.785Z,3.60
2018-08-19T06:39:45.832Z,4.20
2018-08-19T06:40:45.842Z,3.60
2018-08-19T06:41:45.869Z,3.50
2018-08-19T06:42:45.923Z,4.10
2018-08-19T06:43:45.915Z,3.60
2018-08-19T06:44:45.946Z,3.90
2018-08-19T06:45:45.972Z,3.60
2018-08-19T06:46:46.001Z,3.90
2018-08-19T06:47:46.031Z,3.90
2018-08-19T06:48:46.057Z,3.60
2018-08-19T06:49:46.082Z,3.40
2018-08-19T06:50:46.111Z,3.20
2018-08-19T06:51:46.135Z,3.50
2018-08-19T06:52:46.167Z,3.10
2018-08-19T06:53:46.198Z,3.40
2018-08-19T06:54:46.224Z,3.30
2018-08-19T06:55:46.249Z,3.70
2018-08-19T06:56:46.279Z,3.80
2018-08-19T06:57:46.310Z,3.50
2018-08-19T06:58:46.333Z,3.70
2018-08-19T06:59:46.393Z,3.40
2018-08-19T07:00:46.389Z,3.50
2018-08-19T07:01:46.423Z,3.10
2018-08-19T07:02:46.444Z,3.80
2018-08-19T07:03:46.547Z,3.90
2018-08-19T07:04:46.502Z,3.70
2018-08-19T07:05:46.533Z,3.60
2018-08-19T07:06:46.559Z,3.00
2018-08-19T07:07:46.592Z,3.30
2018-08-19T07:08:46.618Z,3.10
2018-08-19T07:09:46.646Z,3.30
2018-08-19T07:10:46.673Z,3.40
2018-08-19T07:11:46.704Z,3.40
2018-08-19T07:12:46.730Z,3.30
2018-08-19T07:13:46.770Z,3.80
2018-08-19T07:14:46.791Z,3.50
2018-08-19T07:15:46.819Z,3.70
2018-08-19T07:16:46.850Z,3.30
2018-08-19T07:17:46.875Z,3.50
2018-08-19T07:18:46.935Z,3.60
2018-08-19T07:19:46.945Z,3.80
2018-08-19T07:20:46.964Z,3.60
2018-08-19T07:21:46.992Z,3.10
2018-08-19T07:22:47.018Z,4.00
2018-08-19T07:23:47.123Z,3.70
2018-08-19T07:24:47.080Z,3.60
2018-08-19T07:25:47.109Z,3.60
2018-08-19T07:26:47.138Z,3.90
2018-08-19T07:27:47.165Z,4.00
2018-08-19T07:28:47.194Z,3.90
2018-08-19T07:29:47.268Z,3.80
2018-08-19T07:30:47.254Z,3.60
2018-08-19T07:31:47.287Z,3.90
2018-08-19T07:32:47.317Z,4.30
2018-08-19T07:33:47.344Z,4.00
2018-08-19T07:34:47.373Z,4.40
2018-08-19T07:35:47.401Z,3.80
2018-08-19T07:36:47.443Z,3.90
2018-08-19T07:37:47.462Z,3.90
2018-08-19T07:38:47.488Z,3.40
2018-08-19T07:39:47.514Z,3.90
2018-08-19T07:40:47.546Z,3.60
2018-08-19T07:41:47.577Z,4.00
2018-08-19T07:42:47.606Z,4.10
2018-08-19T07:43:47.686Z,3.60
2018-08-19T07:44:47.669Z,4.10
2018-08-19T07:45:47.697Z,3.50
2018-08-19T07:46:47.726Z,4.20
2018-08-19T07:47:47.762Z,3.80
2018-08-19T07:48:47.800Z,3.80
2018-08-19T07:49:47.818Z,4.00
2018-08-19T07:50:47.845Z,3.90
2018-08-19T07:51:47.877Z,4.00
2018-08-19T07:52:47.901Z,3.80
2018-08-19T07:53:47.932Z,3.80
2018-08-19T07:54:47.959Z,3.50
2018-08-19T07:55:47.997Z,3.60
2018-08-19T07:56:49.067Z,3.80
2018-08-19T07:57:48.053Z,3.50
2018-08-19T07:58:48.085Z,3.80
2018-08-19T07:59:48.111Z,3.60
2018-08-19T08:00:48.147Z,3.50
2018-08-19T08:01:48.169Z,3.60
2018-08-19T08:02:48.197Z,3.60
2018-08-19T08:03:48.226Z,3.60
2018-08-19T08:04:48.262Z,3.90
2018-08-19T08:05:48.297Z,4.00
2018-08-19T08:06:48.313Z,3.30
2018-08-19T08:07:48.357Z,3.40
2018-08-19T08:08:48.376Z,4.20
2018-08-19T08:09:48.403Z,3.70
2018-08-19T08:10:48.482Z,4.10
2018-08-19T08:11:48.464Z,3.60
2018-08-19T08:12:48.489Z,3.30
2018-08-19T08:13:48.555Z,3.30
2018-08-19T08:14:48.554Z,3.70
2018-08-19T08:15:48.583Z,3.90
2018-08-19T08:16:48.610Z,3.50
2018-08-19T08:17:48.639Z,3.50
2018-08-19T08:18:48.669Z,3.60
2018-08-19T08:19:48.699Z,3.90
2018-08-19T08:20:48.728Z,3.70
2018-08-19T08:21:48.758Z,3.50
2018-08-19T08:22:48.788Z,3.90
2018-08-19T08:23:48.820Z,3.70
2018-08-19T08:24:48.846Z,3.90
2018-08-19T08:25:48.878Z,3.50
2018-08-19T08:26:48.908Z,3.50
2018-08-19T08:27:48.936Z,3.50
2018-08-19T08:28:48.972Z,3.40
2018-08-19T08:29:48.999Z,3.70
2018-08-19T08:30:49.021Z,3.80
2018-08-19T08:31:49.073Z,4.00
2018-08-19T08:32:49.079Z,4.00
2018-08-19T08:33:49.115Z,3.60
2018-08-19T08:34:49.134Z,3.60
2018-08-19T08:35:49.166Z,3.60
2018-08-19T08:36:49.198Z,3.80
2018-08-19T08:37:49.221Z,4.10
2018-08-19T08:38:49.250Z,4.20
2018-08-19T08:39:49.274Z,4.20
2018-08-19T08:40:49.302Z,3.70
2018-08-19T08:41:49.329Z,3.30
2018-08-19T08:42:49.355Z,3.80
2018-08-19T08:43:49.383Z,3.50
2018-08-19T08:44:49.462Z,4.10
2018-08-19T08:45:49.439Z,4.00
2018-08-19T08:46:49.463Z,3.70
2018-08-19T08:47:49.622Z,3.80
2018-08-19T08:48:49.517Z,3.60
2018-08-19T08:49:49.546Z,4.40
2018-08-19T08:50:49.567Z,4.30
2018-08-19T08:51:49.597Z,4.30
2018-08-19T08:52:49.619Z,4.40
2018-08-19T08:53:49.643Z,4.50
2018-08-19T08:54:49.665Z,4.50
2018-08-19T08:55:49.692Z,4.40
2018-08-19T08:56:49.719Z,4.90
2018-08-19T08:57:49.744Z,4.20
2018-08-19T08:58:49.775Z,4.50
2018-08-19T08:59:49.796Z,4.90
2018-08-19T09:00:49.830Z,4.50
2018-08-19T09:01:49.847Z,4.70
2018-08-19T09:02:49.893Z,4.60
2018-08-19T09:03:49.901Z,4.60
2018-08-19T09:04:49.923Z,4.30
2018-08-19T09:05:49.955Z,4.40
2018-08-19T09:06:49.977Z,4.60
2018-08-19T09:07:49.994Z,4.70
2018-08-19T09:08:50.023Z,4.50
2018-08-19T09:09:50.045Z,4.80
2018-08-19T09:10:50.078Z,4.10
2018-08-19T09:11:50.096Z,3.90
2018-08-19T09:12:50.122Z,4.30
2018-08-19T09:13:50.191Z,4.70
2018-08-19T09:14:50.169Z,4.60
2018-08-19T09:15:50.195Z,4.40
2018-08-19T09:16:50.216Z,4.60
2018-08-19T09:17:50.248Z,4.30
2018-08-19T09:18:50.265Z,4.50
2018-08-19T09:19:50.296Z,4.40
2018-08-19T09:20:50.316Z,4.50
2018-08-19T09:21:50.341Z,4.30
2018-08-19T09:22:50.386Z,4.20
2018-08-19T09:23:50.394Z,3.60
2018-08-19T09:24:50.429Z,4.20
2018-08-19T09:25:50.442Z,3.60
2018-08-19T09:26:50.465Z,4.50
2018-08-19T09:27:50.499Z,3.90
2018-08-19T09:28:50.515Z,4.70
2018-08-19T09:29:50.540Z,4.10
2018-08-19T09:30:50.573Z,3.80
2018-08-19T09:31:50.593Z,4.10
2018-08-19T09:32:50.631Z,3.70
2018-08-19T09:33:50.658Z,4.60
2018-08-19T09:34:50.659Z,4.60
2018-08-19T09:35:50.683Z,4.30
2018-08-19T09:36:50.715Z,4.40
2018-08-19T09:37:50.735Z,3.70
2018-08-19T09:38:50.760Z,4.40
2018-08-19T09:39:50.784Z,4.20
2018-08-19T09:40:50.896Z,3.40
2018-08-19T09:41:50.838Z,4.10
2018-08-19T09:42:50.860Z,3.70
2018-08-19T09:43:50.880Z,4.10
2018-08-19T09:44:50.907Z,3.90
2018-08-19T09:45:50.932Z,4.00
2018-08-19T09:46:50.961Z,4.10
2018-08-19T09:47:51.084Z,3.90
2018-08-19T09:48:51.011Z,3.30
2018-08-19T09:49:51.030Z,3.10
2018-08-19T09:50:51.061Z,3.10
2018-08-19T09:51:51.126Z,3.10
2018-08-19T09:52:51.104Z,3.60
2018-08-19T09:53:51.134Z,3.30
2018-08-19T09:54:51.156Z,3.60
2018-08-19T09:55:51.179Z,3.40
2018-08-19T09:56:51.203Z,3.10
2018-08-19T09:57:51.229Z,3.00
2018-08-19T09:58:51.253Z,3.30
2018-08-19T09:59:51.283Z,2.80
2018-08-19T10:00:51.324Z,3.30
2018-08-19T10:01:51.330Z,3.10
2018-08-19T10:02:51.356Z,2.90
2018-08-19T10:03:51.379Z,2.50
2018-08-19T10:04:51.400Z,2.70
2018-08-19T10:05:51.438Z,2.70
2018-08-19T10:06:51.450Z,3.60
2018-08-19T10:07:51.528Z,2.70
2018-08-19T10:08:51.503Z,2.80
2018-08-19T10:09:51.527Z,3.00
2018-08-19T10:10:51.551Z,2.40
2018-08-19T10:11:51.580Z,2.90
2018-08-19T10:12:51.605Z,2.80
2018-08-19T10:13:51.625Z,2.60
2018-08-19T10:14:51.649Z,2.30
2018-08-19T10:15:51.672Z,2.40
2018-08-19T10:16:51.702Z,2.80
2018-08-19T10:17:51.769Z,2.70
2018-08-19T10:18:51.751Z,2.50
2018-08-19T10:19:51.777Z,2.60
2018-08-19T10:20:51.801Z,3.00
2018-08-19T10:21:51.828Z,2.80
2018-08-19T10:22:51.850Z,3.10
2018-08-19T10:23:51.873Z,2.40
2018-08-19T10:24:51.899Z,2.30
2018-08-19T10:25:51.925Z,2.20
2018-08-19T10:26:51.951Z,2.40
2018-08-19T10:27:51.975Z,2.10
2018-08-19T10:28:52.001Z,2.90
2018-08-19T10:29:52.023Z,2.60
2018-08-19T10:30:52.048Z,2.30
2018-08-19T10:31:52.072Z,2.00
2018-08-19T10:32:52.099Z,2.50
2018-08-19T10:33:52.127Z,2.60
2018-08-19T10:34:52.147Z,2.60
2018-08-19T10:35:52.172Z,2.80
2018-08-19T10:36:52.197Z,2.50
2018-08-19T10:37:52.223Z,2.60
2018-08-19T10:38:52.248Z,2.40
2018-08-19T10:39:52.273Z,2.50
2018-08-19T10:40:52.298Z,2.20
2018-08-19T10:41:52.323Z,2.70
2018-08-19T10:42:52.347Z,2.30
2018-08-19T10:43:52.375Z,2.40
2018-08-19T10:44:52.396Z,2.00
2018-08-19T10:45:52.422Z,2.60
2018-08-19T10:46:52.459Z,2.50
2018-08-19T10:47:52.474Z,2.40
2018-08-19T10:48:52.498Z,1.90
2018-08-19T10:49:52.529Z,1.90
2018-08-19T10:50:52.549Z,2.20
2018-08-19T10:51:52.573Z,2.30
2018-08-19T10:52:52.603Z,2.30
2018-08-19T10:53:52.644Z,2.50
2018-08-19T10:54:52.678Z,2.60
2018-08-19T10:55:52.674Z,2.20
2018-08-19T10:56:52.714Z,2.10
2018-08-19T10:57:52.723Z,2.10
2018-08-19T10:58:52.789Z,2.20
2018-08-19T10:59:52.784Z,2.80
2018-08-19T11:00:52.807Z,2.20
2018-08-19T11:01:52.825Z,2.60
2018-08-19T11:02:52.851Z,2.20
2018-08-19T11:03:52.910Z,2.60
2018-08-19T11:04:52.899Z,2.70
2018-08-19T11:05:52.924Z,2.40
2018-08-19T11:06:52.974Z,2.60
2018-08-19T11:07:52.998Z,2.60
2018-08-19T11:08:53.000Z,1.90
2018-08-19T11:09:53.040Z,2.40
2018-08-19T11:10:53.047Z,2.60
2018-08-19T11:11:53.075Z,2.90
2018-08-19T11:12:53.101Z,2.70
2018-08-19T11:13:53.144Z,2.20
2018-08-19T11:14:53.208Z,2.20
2018-08-19T11:15:53.172Z,2.50
2018-08-19T11:16:53.200Z,2.10
2018-08-19T11:17:53.224Z,2.00
2018-08-19T11:18:53.265Z,2.20
2018-08-19T11:19:53.278Z,2.00
2018-08-19T11:20:53.346Z,2.10
2018-08-19T11:21:53.339Z,2.30
2018-08-19T11:22:53.357Z,2.50
2018-08-19T11:23:53.383Z,2.30
2018-08-19T11:24:53.444Z,2.20
2018-08-19T11:25:53.425Z,2.30
2018-08-19T11:26:53.449Z,2.30
2018-08-19T11:27:53.476Z,1.80
2018-08-19T11:28:53.531Z,2.00
2018-08-19T11:29:53.542Z,2.10
2018-08-19T11:30:53.551Z,2.30
2018-08-19T11:31:53.577Z,2.10
2018-08-19T11:32:53.645Z,2.40
2018-08-19T11:33:53.648Z,2.30
2018-08-19T11:34:53.651Z,2.20
2018-08-19T11:35:53.692Z,2.30
2018-08-19T11:36:53.706Z,2.90
2018-08-19T11:37:53.730Z,2.30
2018-08-19T11:38:53.751Z,2.40
2018-08-19T11:39:53.776Z,2.00
2018-08-19T11:40:53.806Z,2.20
2018-08-19T11:41:53.830Z,2.40
2018-08-19T11:42:53.852Z,2.20
2018-08-19T11:43:53.876Z,2.40
2018-08-19T11:44:53.904Z,2.60
2018-08-19T11:45:53.927Z,2.30
2018-08-19T11:46:53.953Z,2.30
2018-08-19T11:47:53.979Z,2.50
2018-08-19T11:48:54.147Z,2.40
2018-08-19T11:49:54.028Z,2.30
2018-08-19T11:50:54.053Z,2.10
2018-08-19T11:51:54.081Z,2.40
2018-08-19T11:52:54.111Z,2.20
2018-08-19T11:53:54.127Z,1.90
2018-08-19T11:54:54.156Z,2.90
2018-08-19T11:55:54.178Z,2.60
2018-08-19T11:56:54.203Z,2.30
2018-08-19T11:57:54.347Z,2.00
2018-08-19T11:58:54.261Z,1.90
2018-08-19T11:59:54.282Z,2.20
2018-08-19T12:00:54.349Z,2.00
2018-08-19T12:01:54.387Z,1.90
2018-08-19T12:02:54.358Z,1.80
2018-08-19T12:03:54.381Z,2.10
2018-08-19T12:04:54.405Z,2.20
2018-08-19T12:05:54.444Z,2.10
2018-08-19T12:06:54.456Z,2.20
2018-08-19T12:07:54.482Z,2.00
2018-08-19T12:08:54.505Z,2.90
2018-08-19T12:09:54.534Z,2.30
2018-08-19T12:10:54.559Z,1.80
2018-08-19T12:11:54.583Z,1.70
2018-08-19T12:12:54.609Z,2.10
2018-08-19T12:13:54.637Z,2.00
2018-08-19T12:14:54.657Z,2.20
2018-08-19T12:15:54.683Z,2.00
2018-08-19T12:16:54.723Z,2.00
2018-08-19T12:17:54.748Z,1.70
2018-08-19T12:18:54.758Z,1.90
2018-08-19T12:19:54.802Z,2.00
2018-08-19T12:20:54.817Z,2.10
2018-08-19T12:21:54.852Z,1.90
2018-08-19T12:22:54.859Z,1.90
2018-08-19T12:23:54.885Z,2.00
2018-08-19T12:24:54.910Z,1.60
2018-08-19T12:25:54.936Z,1.80
2018-08-19T12:26:54.959Z,1.90
2018-08-19T12:27:55.080Z,1.80
2018-08-19T12:28:55.011Z,2.00
2018-08-19T12:29:55.033Z,1.80
2018-08-19T12:30:55.058Z,1.90
2018-08-19T12:31:55.375Z,1.80
2018-08-19T12:32:55.109Z,1.60
2018-08-19T12:33:55.137Z,1.70
2018-08-19T12:34:55.282Z,1.80
2018-08-19T12:35:55.187Z,2.00
2018-08-19T12:36:55.213Z,2.00
2018-08-19T12:37:55.242Z,2.00
2018-08-19T12:38:55.264Z,2.20
2018-08-19T12:39:55.288Z,1.90
2018-08-19T12:40:55.319Z,2.00
2018-08-19T12:41:55.337Z,1.80
2018-08-19T12:42:55.363Z,1.80
2018-08-19T12:43:55.397Z,1.60
2018-08-19T12:44:55.505Z,2.00
2018-08-19T12:45:55.438Z,1.90
2018-08-19T12:46:55.463Z,1.80
2018-08-19T12:47:55.493Z,1.70
2018-08-19T12:48:55.515Z,2.00
2018-08-19T12:49:55.548Z,2.10
2018-08-19T12:50:55.567Z,1.40
2018-08-19T12:51:55.593Z,2.50
2018-08-19T12:52:55.659Z,2.00
2018-08-19T12:53:55.676Z,1.70
2018-08-19T12:54:55.693Z,1.70
2018-08-19T12:55:55.792Z,1.70
2018-08-19T12:56:55.769Z,1.90
2018-08-19T12:57:55.747Z,1.90
2018-08-19T12:58:55.768Z,1.40
2018-08-19T12:59:55.799Z,1.70
2018-08-19T13:00:55.825Z,2.10
2018-08-19T13:01:55.860Z,1.60
2018-08-19T13:02:55.907Z,1.60
2018-08-19T13:03:55.901Z,1.90
2018-08-19T13:04:55.926Z,2.10
2018-08-19T13:05:55.948Z,2.00
2018-08-19T13:06:55.979Z,1.90
2018-08-19T13:07:56.066Z,1.70
2018-08-19T13:08:56.031Z,1.80
2018-08-19T13:09:56.048Z,1.70
2018-08-19T13:10:56.073Z,1.70
2018-08-19T13:11:56.104Z,1.60
2018-08-19T13:12:56.125Z,1.80
2018-08-19T13:13:56.151Z,1.90
2018-08-19T13:14:56.176Z,1.90
2018-08-19T13:15:56.203Z,1.50
2018-08-19T13:16:56.228Z,1.80
2018-08-19T13:17:56.253Z,1.70
2018-08-19T13:18:56.278Z,2.20